createdAt,value
2017-06-04T00:00:57.950Z,26.66
2017-06-04T00:02:00.371Z,26.65
2017-06-04T00:03:02.775Z,26.66
2017-06-04T00:04:05.183Z,26.65
2017-06-04T00:05:07.590Z,26.65
2017-06-04T00:06:09.999Z,26.66
2017-06-04T00:07:12.418Z,26.66
2017-06-04T00:08:14.822Z,26.65
2017-06-04T00:09:17.227Z,26.65
2017-06-04T00:10:19.637Z,26.66
2017-06-04T00:11:22.043Z,26.65
2017-06-04T00:12:24.452Z,26.65
2017-06-04T00:13:26.857Z,26.66
2017-06-04T00:14:29.268Z,26.63
2017-06-04T00:15:31.689Z,26.65
2017-06-04T00:16:34.098Z,26.65
2017-06-04T00:17:36.505Z,26.66
2017-06-04T00:18:38.921Z,26.66
2017-06-04T00:19:41.328Z,26.65
2017-06-04T00:20:43.740Z,26.65
2017-06-04T00:21:46.145Z,26.65
2017-06-04T00:22:48.566Z,26.65
2017-06-04T00:23:50.973Z,26.65
2017-06-04T00:24:53.383Z,26.65
2017-06-04T00:25:55.793Z,26.65
2017-06-04T00:26:58.198Z,26.65
2017-06-04T00:28:00.617Z,26.66
2017-06-04T00:29:03.032Z,26.65
2017-06-04T00:30:05.447Z,26.65
2017-06-04T00:31:07.857Z,26.63
2017-06-04T00:32:10.273Z,26.65
2017-06-04T00:33:12.680Z,26.65
2017-06-04T00:34:15.085Z,26.65
2017-06-04T00:35:17.494Z,26.65
2017-06-04T00:36:19.900Z,26.65
2017-06-04T00:37:22.308Z,26.65
2017-06-04T00:38:24.718Z,26.65
2017-06-04T00:39:27.134Z,26.65
2017-06-04T00:40:29.545Z,26.65
2017-06-04T00:41:31.969Z,26.62
2017-06-04T00:42:34.381Z,26.63
2017-06-04T00:43:36.789Z,26.63
2017-06-04T00:44:39.199Z,26.62
2017-06-04T00:45:41.608Z,26.63
2017-06-04T00:46:44.014Z,26.62
2017-06-04T00:47:46.420Z,26.63
2017-06-04T00:48:48.829Z,26.65
2017-06-04T00:49:51.234Z,26.63
2017-06-04T00:50:53.652Z,26.63
2017-06-04T00:51:56.062Z,26.63
2017-06-04T00:52:58.469Z,26.62
2017-06-04T00:54:00.890Z,26.63
2017-06-04T00:55:03.300Z,26.63
2017-06-04T00:56:05.706Z,26.63
2017-06-04T00:57:08.113Z,26.63
2017-06-04T00:58:10.519Z,26.63
2017-06-04T00:59:12.925Z,26.62
2017-06-04T01:00:15.339Z,26.63
2017-06-04T01:01:17.746Z,26.62
2017-06-04T01:02:20.147Z,26.62
2017-06-04T01:03:22.559Z,26.60
2017-06-04T01:04:24.974Z,26.62
2017-06-04T01:05:27.370Z,26.62
2017-06-04T01:06:29.792Z,26.62
2017-06-04T01:07:32.201Z,26.60
2017-06-04T01:08:34.609Z,26.60
2017-06-04T01:09:37.016Z,26.62
2017-06-04T01:10:39.425Z,26.60
2017-06-04T01:11:41.837Z,26.60
2017-06-04T01:12:44.247Z,26.60
2017-06-04T01:13:46.654Z,26.60
2017-06-04T01:14:49.065Z,26.60
2017-06-04T01:15:51.471Z,26.60
2017-06-04T01:16:53.876Z,26.62
2017-06-04T01:17:57.217Z,26.59
2017-06-04T01:18:59.625Z,26.59
2017-06-04T01:20:02.034Z,26.59
2017-06-04T01:21:04.445Z,26.60
2017-06-04T01:22:06.854Z,26.59
2017-06-04T01:23:09.261Z,26.60
2017-06-04T01:24:11.670Z,26.59
2017-06-04T01:25:14.081Z,26.62
2017-06-04T01:26:16.495Z,26.59
2017-06-04T01:27:18.905Z,26.60
2017-06-04T01:28:21.309Z,26.60
2017-06-04T01:29:23.727Z,26.59
2017-06-04T01:30:26.128Z,26.59
2017-06-04T01:31:28.537Z,26.58
2017-06-04T01:32:30.966Z,26.59
2017-06-04T01:33:33.375Z,26.58
2017-06-04T01:34:35.786Z,26.59
2017-06-04T01:35:38.193Z,26.59
2017-06-04T01:36:40.609Z,26.58
2017-06-04T01:37:43.024Z,26.59
2017-06-04T01:38:45.432Z,26.58
2017-06-04T01:39:47.846Z,26.58
2017-06-04T01:40:50.252Z,26.58
2017-06-04T01:41:52.659Z,26.58
2017-06-04T01:42:55.071Z,26.58
2017-06-04T01:43:57.478Z,26.58
2017-06-04T01:44:59.888Z,26.56
2017-06-04T01:46:02.303Z,26.58
2017-06-04T01:47:04.715Z,26.58
2017-06-04T01:48:07.123Z,26.58
2017-06-04T01:49:09.533Z,26.58
2017-06-04T01:50:11.940Z,26.58
2017-06-04T01:51:14.346Z,26.56
2017-06-04T01:52:16.759Z,26.56
2017-06-04T01:53:19.171Z,26.56
2017-06-04T01:54:21.581Z,26.55
2017-06-04T01:55:23.987Z,26.55
2017-06-04T01:56:26.401Z,26.56
2017-06-04T01:57:28.819Z,26.55
2017-06-04T01:58:31.230Z,26.55
2017-06-04T01:59:33.640Z,26.55
2017-06-04T02:00:36.044Z,26.56
2017-06-04T02:01:38.452Z,26.56
2017-06-04T02:02:40.860Z,26.56
2017-06-04T02:03:43.275Z,26.55
2017-06-04T02:04:45.684Z,26.55
2017-06-04T02:05:48.090Z,26.56
2017-06-04T02:06:50.500Z,26.55
2017-06-04T02:07:52.921Z,26.55
2017-06-04T02:08:55.329Z,26.56
2017-06-04T02:09:57.736Z,26.55
2017-06-04T02:11:00.145Z,26.55
2017-06-04T02:12:02.552Z,26.53
2017-06-04T02:13:04.970Z,26.53
2017-06-04T02:14:07.373Z,26.53
2017-06-04T02:15:09.783Z,26.55
2017-06-04T02:16:12.144Z,26.52
2017-06-04T02:17:14.553Z,26.53
2017-06-04T02:18:16.962Z,26.53
2017-06-04T02:19:19.370Z,26.53
2017-06-04T02:20:21.773Z,26.53
2017-06-04T02:21:24.182Z,26.53
2017-06-04T02:22:26.591Z,26.52
2017-06-04T02:23:28.996Z,26.52
2017-06-04T02:24:31.407Z,26.53
2017-06-04T02:25:33.812Z,26.51
2017-06-04T02:26:36.223Z,26.53
2017-06-04T02:27:38.628Z,26.52
2017-06-04T02:28:41.034Z,26.52
2017-06-04T02:29:43.440Z,26.52
2017-06-04T02:30:45.847Z,26.52
2017-06-04T02:31:48.257Z,26.52
2017-06-04T02:32:50.667Z,26.53
2017-06-04T02:33:53.079Z,26.52
2017-06-04T02:34:55.487Z,26.51
2017-06-04T02:35:57.891Z,26.51
2017-06-04T02:37:00.300Z,26.52
2017-06-04T02:38:02.704Z,26.51
2017-06-04T02:39:05.124Z,26.52
2017-06-04T02:40:07.528Z,26.52
2017-06-04T02:41:09.933Z,26.51
2017-06-04T02:42:12.338Z,26.51
2017-06-04T02:43:14.743Z,26.52
2017-06-04T02:44:17.152Z,26.52
2017-06-04T02:45:19.580Z,26.51
2017-06-04T02:46:21.987Z,26.51
2017-06-04T02:47:24.393Z,26.51
2017-06-04T02:48:26.799Z,26.51
2017-06-04T02:49:29.217Z,26.51
2017-06-04T02:50:31.623Z,26.51
2017-06-04T02:51:34.027Z,26.51
2017-06-04T02:52:36.431Z,26.51
2017-06-04T02:53:38.837Z,26.51
2017-06-04T02:54:41.248Z,26.48
2017-06-04T02:55:43.651Z,26.51
2017-06-04T02:56:46.060Z,26.51
2017-06-04T02:57:48.470Z,26.52
2017-06-04T02:58:50.878Z,26.51
2017-06-04T02:59:53.291Z,26.51
2017-06-04T03:00:55.701Z,26.51
2017-06-04T03:01:58.106Z,26.51
2017-06-04T03:03:00.514Z,26.51
2017-06-04T03:04:02.926Z,26.51
2017-06-04T03:05:05.338Z,26.51
2017-06-04T03:06:07.754Z,26.51
2017-06-04T03:07:10.157Z,26.51
2017-06-04T03:08:12.566Z,26.51
2017-06-04T03:09:14.976Z,26.51
2017-06-04T03:10:17.395Z,26.48
2017-06-04T03:11:19.794Z,26.51
2017-06-04T03:12:22.207Z,26.51
2017-06-04T03:13:24.614Z,26.51
2017-06-04T03:14:27.021Z,26.51
2017-06-04T03:15:29.427Z,26.51
2017-06-04T03:16:31.873Z,26.51
2017-06-04T03:17:34.248Z,26.52
2017-06-04T03:18:36.653Z,26.51
2017-06-04T03:19:39.072Z,26.51
2017-06-04T03:20:41.481Z,26.47
2017-06-04T03:21:43.886Z,26.51
2017-06-04T03:22:46.297Z,26.51
2017-06-04T03:23:48.701Z,26.51
2017-06-04T03:24:51.128Z,26.51
2017-06-04T03:25:53.538Z,26.51
2017-06-04T03:26:55.966Z,26.51
2017-06-04T03:27:58.374Z,26.51
2017-06-04T03:29:00.778Z,26.48
2017-06-04T03:30:03.190Z,26.52
2017-06-04T03:31:05.618Z,26.52
2017-06-04T03:32:08.025Z,26.52
2017-06-04T03:33:10.431Z,26.52
2017-06-04T03:34:12.837Z,26.51
2017-06-04T03:35:15.241Z,26.51
2017-06-04T03:36:17.647Z,26.51
2017-06-04T03:37:20.062Z,26.51
2017-06-04T03:38:22.468Z,26.48
2017-06-04T03:39:24.876Z,26.51
2017-06-04T03:40:27.286Z,26.48
2017-06-04T03:41:29.700Z,26.51
2017-06-04T03:42:32.109Z,26.52
2017-06-04T03:43:34.474Z,26.48
2017-06-04T03:44:36.882Z,26.51
2017-06-04T03:45:39.291Z,26.51
2017-06-04T03:46:41.698Z,26.52
2017-06-04T03:47:44.104Z,26.52
2017-06-04T03:48:46.527Z,26.52
2017-06-04T03:49:48.938Z,26.51
2017-06-04T03:50:51.346Z,26.53
2017-06-04T03:51:53.770Z,26.52
2017-06-04T03:52:56.798Z,26.51
2017-06-04T03:53:59.203Z,26.53
2017-06-04T03:55:01.611Z,26.52
2017-06-04T03:56:04.021Z,26.53
2017-06-04T03:57:06.429Z,26.52
2017-06-04T03:58:08.835Z,26.52
2017-06-04T03:59:11.248Z,26.55
2017-06-04T04:00:13.650Z,26.55
2017-06-04T04:01:16.062Z,26.55
2017-06-04T04:02:18.467Z,26.55
2017-06-04T04:03:20.875Z,26.55
2017-06-04T04:04:23.287Z,26.55
2017-06-04T04:05:25.694Z,26.55
2017-06-04T04:06:28.106Z,26.55
2017-06-04T04:07:30.511Z,26.55
2017-06-04T04:08:32.923Z,26.55
2017-06-04T04:09:35.335Z,26.52
2017-06-04T04:10:37.746Z,26.53
2017-06-04T04:11:40.149Z,26.53
2017-06-04T04:12:42.556Z,26.53
2017-06-04T04:13:44.964Z,26.55
2017-06-04T04:14:47.368Z,26.56
2017-06-04T04:15:49.777Z,26.53
2017-06-04T04:16:52.179Z,26.53
2017-06-04T04:17:54.592Z,26.52
2017-06-04T04:18:57.004Z,26.51
2017-06-04T04:19:59.409Z,26.52
2017-06-04T04:21:01.817Z,26.52
2017-06-04T04:22:04.223Z,26.52
2017-06-04T04:23:06.631Z,26.52
2017-06-04T04:24:09.076Z,26.52
2017-06-04T04:25:11.454Z,26.52
2017-06-04T04:26:13.858Z,26.51
2017-06-04T04:27:16.271Z,26.48
2017-06-04T04:28:18.682Z,26.51
2017-06-04T04:29:21.087Z,26.51
2017-06-04T04:30:23.512Z,26.51
2017-06-04T04:31:25.915Z,26.51
2017-06-04T04:32:28.321Z,26.51
2017-06-04T04:33:30.723Z,26.48
2017-06-04T04:34:33.143Z,26.51
2017-06-04T04:35:35.551Z,26.51
2017-06-04T04:36:37.952Z,26.51
2017-06-04T04:37:40.354Z,26.48
2017-06-04T04:38:42.768Z,26.51
2017-06-04T04:39:45.173Z,26.51
2017-06-04T04:40:47.580Z,26.51
2017-06-04T04:41:49.987Z,26.51
2017-06-04T04:42:52.392Z,26.51
2017-06-04T04:43:54.798Z,26.51
2017-06-04T04:44:57.219Z,26.51
2017-06-04T04:45:59.628Z,26.52
2017-06-04T04:47:02.039Z,26.51
2017-06-04T04:48:04.445Z,26.52
2017-06-04T04:49:06.857Z,26.52
2017-06-04T04:50:09.264Z,26.52
2017-06-04T04:51:11.678Z,26.52
2017-06-04T04:52:14.087Z,26.51
2017-06-04T04:53:16.492Z,26.53
2017-06-04T04:54:18.899Z,26.52
2017-06-04T04:55:21.316Z,26.55
2017-06-04T04:56:23.720Z,26.55
2017-06-04T04:57:26.126Z,26.56
2017-06-04T04:58:28.535Z,26.56
2017-06-04T04:59:30.937Z,26.56
2017-06-04T05:00:33.342Z,26.58
2017-06-04T05:01:35.755Z,26.58
2017-06-04T05:02:38.162Z,26.59
2017-06-04T05:03:40.572Z,26.58
2017-06-04T05:04:42.977Z,26.59
2017-06-04T05:05:45.397Z,26.62
2017-06-04T05:06:47.801Z,26.62
2017-06-04T05:07:50.204Z,26.63
2017-06-04T05:08:52.614Z,26.65
2017-06-04T05:09:55.022Z,26.63
2017-06-04T05:10:57.445Z,26.63
2017-06-04T05:11:59.857Z,26.66
2017-06-04T05:13:02.264Z,26.63
2017-06-04T05:14:04.665Z,26.63
2017-06-04T05:15:07.077Z,26.63
2017-06-04T05:16:09.502Z,26.65
2017-06-04T05:17:11.905Z,26.62
2017-06-04T05:18:14.310Z,26.63
2017-06-04T05:19:16.723Z,26.65
2017-06-04T05:20:19.128Z,26.63
2017-06-04T05:21:21.537Z,26.65
2017-06-04T05:22:23.955Z,26.63
2017-06-04T05:23:26.361Z,26.63
2017-06-04T05:24:28.768Z,26.63
2017-06-04T05:25:31.178Z,26.65
2017-06-04T05:26:33.595Z,26.65
2017-06-04T05:27:36.001Z,26.66
2017-06-04T05:28:38.437Z,26.66
2017-06-04T05:29:40.817Z,26.65
2017-06-04T05:30:43.222Z,26.65
2017-06-04T05:31:45.633Z,26.66
2017-06-04T05:32:48.045Z,26.68
2017-06-04T05:33:50.447Z,26.68
2017-06-04T05:34:52.856Z,26.71
2017-06-04T05:35:55.262Z,26.71
2017-06-04T05:36:57.673Z,26.74
2017-06-04T05:38:00.078Z,26.77
2017-06-04T05:39:02.487Z,26.77
2017-06-04T05:40:04.898Z,26.77
2017-06-04T05:41:07.310Z,26.78
2017-06-04T05:42:09.713Z,26.80
2017-06-04T05:43:12.133Z,26.81
2017-06-04T05:44:14.546Z,26.81
2017-06-04T05:45:16.950Z,26.81
2017-06-04T05:46:19.358Z,26.81
2017-06-04T05:47:21.771Z,26.81
2017-06-04T05:48:24.180Z,26.80
2017-06-04T05:49:26.588Z,26.80
2017-06-04T05:50:28.993Z,26.78
2017-06-04T05:51:31.398Z,26.80
2017-06-04T05:52:33.810Z,26.80
2017-06-04T05:53:36.224Z,26.80
2017-06-04T05:54:38.644Z,26.80
2017-06-04T05:55:41.043Z,26.81
2017-06-04T05:56:43.449Z,26.81
2017-06-04T05:57:45.866Z,26.83
2017-06-04T05:58:48.275Z,26.80
2017-06-04T05:59:50.683Z,26.81
2017-06-04T06:00:53.092Z,26.83
2017-06-04T06:01:55.504Z,26.83
2017-06-04T06:02:57.907Z,26.83
2017-06-04T06:04:00.333Z,26.84
2017-06-04T06:05:02.744Z,26.84
2017-06-04T06:06:05.150Z,26.88
2017-06-04T06:07:07.558Z,26.88
2017-06-04T06:08:09.966Z,26.90
2017-06-04T06:09:12.378Z,26.90
2017-06-04T06:10:14.790Z,26.92
2017-06-04T06:11:17.190Z,26.93
2017-06-04T06:12:19.599Z,26.92
2017-06-04T06:13:22.009Z,26.95
2017-06-04T06:14:24.412Z,26.92
2017-06-04T06:15:26.829Z,26.93
2017-06-04T06:16:29.235Z,26.93
2017-06-04T06:17:31.645Z,26.92
2017-06-04T06:18:34.053Z,26.93
2017-06-04T06:19:36.462Z,26.95
2017-06-04T06:20:38.869Z,26.97
2017-06-04T06:21:41.279Z,26.97
2017-06-04T06:22:43.686Z,26.96
2017-06-04T06:23:46.090Z,26.99
2017-06-04T06:24:48.499Z,27.02
2017-06-04T06:25:50.901Z,26.99
2017-06-04T06:26:53.313Z,27.02
2017-06-04T06:27:55.724Z,27.03
2017-06-04T06:28:58.144Z,27.08
2017-06-04T06:30:00.548Z,27.08
2017-06-04T06:31:02.959Z,27.11
2017-06-04T06:32:05.369Z,27.12
2017-06-04T06:33:07.780Z,27.17
2017-06-04T06:34:10.186Z,27.17
2017-06-04T06:35:12.602Z,27.15
2017-06-04T06:36:15.014Z,27.17
2017-06-04T06:37:17.423Z,27.15
2017-06-04T06:38:19.839Z,27.14
2017-06-04T06:39:22.258Z,27.12
2017-06-04T06:40:24.667Z,27.11
2017-06-04T06:41:27.074Z,27.12
2017-06-04T06:42:29.491Z,27.15
2017-06-04T06:43:31.898Z,27.21
2017-06-04T06:44:34.309Z,27.25
2017-06-04T06:45:36.721Z,27.30
2017-06-04T06:46:39.145Z,27.30
2017-06-04T06:47:41.559Z,27.30
2017-06-04T06:48:43.961Z,27.35
2017-06-04T06:49:46.374Z,27.32
2017-06-04T06:50:48.789Z,27.36
2017-06-04T06:51:51.196Z,27.36
2017-06-04T06:52:53.606Z,27.36
2017-06-04T06:53:56.012Z,27.37
2017-06-04T06:54:58.419Z,27.36
2017-06-04T06:56:00.837Z,27.35
2017-06-04T06:57:03.245Z,27.32
2017-06-04T06:58:05.651Z,27.32
2017-06-04T06:59:08.065Z,27.25
2017-06-04T07:00:10.466Z,27.22
2017-06-04T07:01:12.883Z,27.22
2017-06-04T07:02:15.287Z,27.30
2017-06-04T07:03:17.695Z,27.33
2017-06-04T07:04:20.101Z,27.32
2017-06-04T07:05:22.510Z,27.37
2017-06-04T07:06:24.920Z,27.37
2017-06-04T07:07:27.349Z,27.42
2017-06-04T07:08:29.759Z,27.44
2017-06-04T07:09:32.170Z,27.47
2017-06-04T07:10:34.592Z,27.52
2017-06-04T07:11:36.997Z,27.54
2017-06-04T07:12:39.406Z,27.58
2017-06-04T07:13:41.813Z,27.63
2017-06-04T07:14:44.224Z,27.63
2017-06-04T07:15:46.633Z,27.65
2017-06-04T07:16:49.041Z,27.68
2017-06-04T07:17:51.450Z,27.71
2017-06-04T07:18:53.870Z,27.71
2017-06-04T07:19:56.279Z,27.73
2017-06-04T07:20:58.686Z,27.75
2017-06-04T07:22:01.097Z,27.82
2017-06-04T07:23:03.501Z,27.82
2017-06-04T07:24:05.910Z,27.83
2017-06-04T07:25:08.320Z,27.86
2017-06-04T07:26:10.724Z,27.87
2017-06-04T07:27:13.138Z,27.93
2017-06-04T07:28:15.557Z,27.93
2017-06-04T07:29:17.964Z,27.95
2017-06-04T07:30:20.370Z,27.98
2017-06-04T07:31:22.781Z,27.98
2017-06-04T07:32:25.196Z,27.93
2017-06-04T07:33:27.609Z,27.89
2017-06-04T07:34:30.018Z,27.89
2017-06-04T07:35:32.425Z,27.89
2017-06-04T07:36:34.835Z,27.89
2017-06-04T07:37:37.246Z,27.86
2017-06-04T07:38:39.648Z,27.86
2017-06-04T07:39:42.063Z,27.89
2017-06-04T07:40:44.474Z,27.90
2017-06-04T07:41:46.882Z,27.90
2017-06-04T07:42:49.297Z,27.93
2017-06-04T07:43:51.707Z,27.93
2017-06-04T07:44:54.122Z,27.95
2017-06-04T07:45:56.527Z,27.98
2017-06-04T07:46:58.938Z,28.04
2017-06-04T07:48:01.346Z,28.08
2017-06-04T07:49:03.757Z,28.15
2017-06-04T07:50:06.167Z,28.23
2017-06-04T07:51:08.579Z,28.23
2017-06-04T07:52:10.994Z,28.26
2017-06-04T07:53:13.396Z,28.27
2017-06-04T07:54:15.808Z,28.32
2017-06-04T07:55:18.219Z,28.33
2017-06-04T07:56:20.627Z,28.37
2017-06-04T07:57:23.035Z,28.38
2017-06-04T07:58:25.445Z,28.42
2017-06-04T07:59:27.858Z,28.38
2017-06-04T08:00:30.270Z,28.41
2017-06-04T08:01:32.676Z,28.45
2017-06-04T08:02:35.084Z,28.45
2017-06-04T08:03:37.493Z,28.45
2017-06-04T08:04:39.903Z,28.47
2017-06-04T08:05:42.312Z,28.47
2017-06-04T08:06:44.723Z,28.45
2017-06-04T08:07:47.131Z,28.48
2017-06-04T08:08:49.542Z,28.48
2017-06-04T08:09:51.947Z,28.52
2017-06-04T08:10:54.358Z,28.56
2017-06-04T08:11:56.768Z,28.56
2017-06-04T08:12:59.171Z,28.59
2017-06-04T08:14:01.599Z,28.60
2017-06-04T08:15:04.008Z,28.63
2017-06-04T08:16:06.418Z,28.64
2017-06-04T08:17:08.825Z,28.67
2017-06-04T08:18:11.231Z,28.69
2017-06-04T08:19:13.638Z,28.69
2017-06-04T08:20:16.047Z,28.70
2017-06-04T08:21:18.459Z,28.72
2017-06-04T08:22:20.867Z,28.75
2017-06-04T08:23:23.276Z,28.79
2017-06-04T08:24:25.692Z,28.79
2017-06-04T08:25:28.097Z,28.85
2017-06-04T08:26:30.508Z,28.85
2017-06-04T08:27:32.917Z,28.89
2017-06-04T08:28:35.329Z,28.91
2017-06-04T08:29:37.740Z,28.96
2017-06-04T08:30:40.156Z,28.96
2017-06-04T08:31:42.578Z,28.97
2017-06-04T08:32:44.987Z,28.93
2017-06-04T08:33:47.399Z,28.97
2017-06-04T08:34:49.814Z,28.96
2017-06-04T08:35:52.226Z,28.96
2017-06-04T08:36:54.639Z,28.98
2017-06-04T08:37:57.047Z,29.02
2017-06-04T08:38:59.465Z,29.05
2017-06-04T08:40:01.870Z,29.05
2017-06-04T08:41:04.285Z,29.02
2017-06-04T08:42:06.696Z,29.08
2017-06-04T08:43:09.102Z,29.10
2017-06-04T08:44:11.516Z,29.05
2017-06-04T08:45:13.933Z,29.08
2017-06-04T08:46:16.345Z,29.10
2017-06-04T08:47:18.749Z,29.13
2017-06-04T08:48:21.155Z,29.16
2017-06-04T08:49:23.572Z,29.17
2017-06-04T08:50:25.981Z,29.19
2017-06-04T08:51:28.394Z,29.19
2017-06-04T08:52:30.814Z,29.20
2017-06-04T08:53:33.219Z,29.19
2017-06-04T08:54:35.628Z,29.22
2017-06-04T08:55:38.047Z,29.20
2017-06-04T08:56:40.457Z,29.23
2017-06-04T08:57:42.873Z,29.23
2017-06-04T08:58:45.277Z,29.23
2017-06-04T08:59:47.683Z,29.22
2017-06-04T09:00:50.092Z,29.24
2017-06-04T09:01:52.509Z,29.26
2017-06-04T09:02:54.922Z,29.26
2017-06-04T09:03:57.329Z,29.32
2017-06-04T09:04:59.749Z,29.36
2017-06-04T09:06:02.160Z,29.39
2017-06-04T09:07:04.569Z,29.45
2017-06-04T09:08:06.977Z,29.53
2017-06-04T09:09:09.387Z,29.53
2017-06-04T09:10:11.798Z,29.57
2017-06-04T09:11:14.208Z,29.39
2017-06-04T09:12:16.621Z,28.85
2017-06-04T09:13:19.035Z,28.52
2017-06-04T09:14:21.444Z,28.32
2017-06-04T09:15:23.855Z,28.23
2017-06-04T09:16:26.273Z,28.12
2017-06-04T09:17:28.679Z,28.04
2017-06-04T09:18:31.086Z,27.98
2017-06-04T09:19:33.510Z,27.92
2017-06-04T09:20:35.919Z,27.89
2017-06-04T09:21:38.328Z,27.87
2017-06-04T09:22:40.735Z,27.85
2017-06-04T09:23:43.151Z,27.82
2017-06-04T09:24:45.556Z,27.78
2017-06-04T09:25:47.966Z,27.77
2017-06-04T09:26:50.386Z,27.74
2017-06-04T09:27:52.800Z,27.74
2017-06-04T09:28:55.215Z,27.70
2017-06-04T09:29:57.625Z,27.68
2017-06-04T09:31:00.032Z,27.65
2017-06-04T09:32:02.443Z,27.63
2017-06-04T09:33:04.862Z,27.59
2017-06-04T09:34:07.270Z,27.58
2017-06-04T09:35:09.688Z,27.54
2017-06-04T09:36:12.087Z,27.54
2017-06-04T09:37:14.508Z,27.55
2017-06-04T09:38:16.918Z,27.52
2017-06-04T09:39:19.325Z,27.52
2017-06-04T09:40:21.736Z,27.52
2017-06-04T09:41:24.140Z,27.51
2017-06-04T09:42:26.551Z,27.51
2017-06-04T09:43:28.959Z,27.52
2017-06-04T09:44:31.364Z,27.51
2017-06-04T09:45:33.786Z,27.49
2017-06-04T09:46:36.192Z,27.49
2017-06-04T09:47:38.612Z,27.48
2017-06-04T09:48:41.020Z,27.47
2017-06-04T09:49:43.426Z,27.47
2017-06-04T09:50:45.835Z,27.45
2017-06-04T09:51:48.235Z,27.48
2017-06-04T09:52:50.643Z,27.45
2017-06-04T09:53:53.050Z,27.42
2017-06-04T09:54:55.466Z,27.45
2017-06-04T09:55:57.879Z,27.48
2017-06-04T09:57:00.284Z,27.48
2017-06-04T09:58:02.694Z,27.49
2017-06-04T09:59:05.102Z,27.48
2017-06-04T10:00:07.507Z,27.48
2017-06-04T10:01:09.923Z,27.48
2017-06-04T10:02:12.330Z,27.48
2017-06-04T10:03:14.739Z,27.45
2017-06-04T10:04:17.146Z,27.42
2017-06-04T10:05:19.565Z,27.45
2017-06-04T10:06:21.976Z,27.44
2017-06-04T10:07:24.384Z,27.44
2017-06-04T10:08:26.796Z,27.40
2017-06-04T10:09:29.204Z,27.40
2017-06-04T10:10:31.612Z,27.37
2017-06-04T10:11:34.047Z,27.35
2017-06-04T10:12:36.452Z,27.35
2017-06-04T10:13:38.861Z,27.39
2017-06-04T10:14:41.263Z,27.36
2017-06-04T10:15:43.669Z,27.37
2017-06-04T10:16:46.088Z,27.39
2017-06-04T10:17:48.497Z,27.36
2017-06-04T10:18:50.903Z,27.35
2017-06-04T10:19:53.317Z,27.39
2017-06-04T10:20:55.722Z,27.40
2017-06-04T10:21:58.130Z,27.44
2017-06-04T10:23:00.535Z,27.42
2017-06-04T10:24:02.947Z,27.39
2017-06-04T10:25:05.358Z,27.36
2017-06-04T10:26:07.775Z,27.39
2017-06-04T10:27:10.183Z,27.39
2017-06-04T10:28:12.592Z,27.36
2017-06-04T10:29:15.008Z,27.37
2017-06-04T10:30:17.416Z,27.37
2017-06-04T10:31:19.825Z,27.35
2017-06-04T10:32:22.235Z,27.32
2017-06-04T10:33:24.647Z,27.32
2017-06-04T10:34:27.060Z,27.35
2017-06-04T10:35:29.469Z,27.39
2017-06-04T10:36:31.893Z,27.40
2017-06-04T10:37:34.311Z,27.40
2017-06-04T10:38:36.722Z,27.40
2017-06-04T10:39:39.127Z,27.39
2017-06-04T10:40:41.540Z,27.39
2017-06-04T10:41:43.943Z,27.40
2017-06-04T10:42:46.354Z,27.42
2017-06-04T10:43:48.756Z,27.45
2017-06-04T10:44:51.166Z,27.44
2017-06-04T10:45:53.574Z,27.47
2017-06-04T10:46:55.988Z,27.42
2017-06-04T10:47:58.391Z,27.44
2017-06-04T10:49:00.801Z,27.44
2017-06-04T10:50:03.217Z,27.40
2017-06-04T10:51:05.626Z,27.39
2017-06-04T10:52:08.039Z,27.37
2017-06-04T10:53:10.455Z,27.40
2017-06-04T10:54:12.863Z,27.42
2017-06-04T10:55:15.269Z,27.39
2017-06-04T10:56:17.680Z,27.39
2017-06-04T10:57:20.090Z,27.36
2017-06-04T10:58:22.500Z,27.32
2017-06-04T10:59:24.908Z,27.36
2017-06-04T11:00:27.315Z,27.39
2017-06-04T11:01:29.738Z,27.35
2017-06-04T11:02:32.150Z,27.35
2017-06-04T11:03:34.591Z,27.36
2017-06-04T11:04:37.003Z,27.33
2017-06-04T11:05:39.412Z,27.33
2017-06-04T11:06:41.829Z,27.33
2017-06-04T11:07:44.232Z,27.35
2017-06-04T11:08:46.645Z,27.33
2017-06-04T11:09:49.053Z,27.32
2017-06-04T11:10:51.460Z,27.30
2017-06-04T11:11:53.867Z,27.29
2017-06-04T11:12:56.275Z,27.27
2017-06-04T11:13:58.681Z,27.27
2017-06-04T11:15:01.094Z,27.26
2017-06-04T11:16:03.500Z,27.26
2017-06-04T11:17:05.908Z,27.26
2017-06-04T11:18:08.325Z,27.27
2017-06-04T11:19:10.737Z,27.32
2017-06-04T11:20:13.135Z,27.30
2017-06-04T11:21:15.545Z,27.30
2017-06-04T11:22:17.960Z,27.30
2017-06-04T11:23:20.367Z,27.32
2017-06-04T11:24:22.778Z,27.33
2017-06-04T11:25:25.188Z,27.33
2017-06-04T11:26:27.599Z,27.33
2017-06-04T11:27:30.006Z,27.36
2017-06-04T11:28:32.417Z,27.37
2017-06-04T11:29:34.837Z,27.42
2017-06-04T11:30:37.240Z,27.36
2017-06-04T11:31:39.651Z,27.32
2017-06-04T11:32:42.068Z,27.27
2017-06-04T11:33:44.476Z,27.27
2017-06-04T11:34:46.883Z,27.26
2017-06-04T11:35:49.290Z,27.22
2017-06-04T11:36:51.702Z,27.25
2017-06-04T11:37:54.108Z,27.25
2017-06-04T11:38:56.530Z,27.30
2017-06-04T11:39:58.943Z,27.35
2017-06-04T11:41:01.353Z,27.39
2017-06-04T11:42:03.762Z,27.36
2017-06-04T11:43:06.177Z,27.29
2017-06-04T11:44:08.580Z,27.32
2017-06-04T11:45:10.994Z,27.37
2017-06-04T11:46:13.395Z,27.35
2017-06-04T11:47:15.804Z,27.35
2017-06-04T11:48:18.215Z,27.35
2017-06-04T11:49:20.624Z,27.37
2017-06-04T11:50:23.039Z,27.37
2017-06-04T11:51:25.448Z,27.39
2017-06-04T11:52:27.852Z,27.35
2017-06-04T11:53:30.265Z,27.36
2017-06-04T11:54:32.670Z,27.36
2017-06-04T11:55:35.127Z,27.32
2017-06-04T11:56:37.533Z,27.33
2017-06-04T11:57:39.950Z,27.39
2017-06-04T11:58:42.357Z,27.42
2017-06-04T11:59:44.766Z,27.45
2017-06-04T12:00:47.177Z,27.40
2017-06-04T12:01:49.584Z,27.37
2017-06-04T12:02:51.993Z,27.36
2017-06-04T12:03:54.399Z,27.42
2017-06-04T12:04:56.810Z,27.42
2017-06-04T12:05:59.216Z,27.40
2017-06-04T12:07:01.622Z,27.40
2017-06-04T12:08:04.032Z,27.42
2017-06-04T12:09:06.444Z,27.42
2017-06-04T12:10:08.859Z,27.40
2017-06-04T12:11:11.267Z,27.39
2017-06-04T12:12:13.673Z,27.39
2017-06-04T12:13:16.077Z,27.37
2017-06-04T12:14:18.493Z,27.48
2017-06-04T12:15:20.905Z,27.55
2017-06-04T12:16:23.315Z,27.54
2017-06-04T12:17:25.725Z,27.49
2017-06-04T12:18:28.133Z,27.49
2017-06-04T12:19:30.543Z,27.48
2017-06-04T12:20:32.954Z,27.48
2017-06-04T12:21:35.365Z,27.48
2017-06-04T12:22:37.772Z,27.47
2017-06-04T12:23:40.179Z,27.40
2017-06-04T12:24:42.591Z,27.37
2017-06-04T12:25:44.999Z,27.36
2017-06-04T12:26:47.409Z,27.36
2017-06-04T12:27:49.817Z,27.39
2017-06-04T12:28:52.224Z,27.44
2017-06-04T12:29:54.627Z,27.45
2017-06-04T12:30:57.043Z,27.48
2017-06-04T12:31:59.454Z,27.49
2017-06-04T12:33:01.870Z,27.48
2017-06-04T12:34:04.273Z,27.51
2017-06-04T12:35:06.680Z,27.49
2017-06-04T12:36:09.089Z,27.52
2017-06-04T12:37:11.495Z,27.51
2017-06-04T12:38:13.902Z,27.49
2017-06-04T12:39:16.306Z,27.49
2017-06-04T12:40:18.718Z,27.48
2017-06-04T12:41:21.127Z,27.42
2017-06-04T12:42:23.568Z,27.39
2017-06-04T12:43:25.968Z,27.37
2017-06-04T12:44:28.376Z,27.36
2017-06-04T12:45:30.842Z,27.33
2017-06-04T12:46:33.256Z,27.32
2017-06-04T12:47:35.663Z,27.32
2017-06-04T12:48:38.070Z,27.32
2017-06-04T12:49:40.482Z,27.30
2017-06-04T12:50:42.889Z,27.30
2017-06-04T12:51:45.298Z,27.30
2017-06-04T12:52:47.716Z,27.32
2017-06-04T12:53:50.128Z,27.30
2017-06-04T12:54:52.535Z,27.29
2017-06-04T12:55:54.947Z,27.27
2017-06-04T12:56:57.360Z,27.27
2017-06-04T12:57:59.774Z,27.29
2017-06-04T12:59:02.181Z,27.30
2017-06-04T13:00:04.585Z,27.27
2017-06-04T13:01:06.993Z,27.27
2017-06-04T13:02:09.396Z,27.29
2017-06-04T13:03:11.810Z,27.27
2017-06-04T13:04:14.217Z,27.29
2017-06-04T13:05:16.626Z,27.27
2017-06-04T13:06:19.039Z,27.27
2017-06-04T13:07:21.447Z,27.27
2017-06-04T13:08:23.855Z,27.27
2017-06-04T13:09:26.260Z,27.27
2017-06-04T13:10:28.664Z,27.27
2017-06-04T13:11:31.072Z,27.26
2017-06-04T13:12:33.483Z,27.26
2017-06-04T13:13:35.898Z,27.25
2017-06-04T13:14:38.312Z,27.25
2017-06-04T13:15:40.726Z,27.26
2017-06-04T13:16:43.141Z,27.26
2017-06-04T13:17:45.547Z,27.25
2017-06-04T13:18:48.013Z,27.25
2017-06-04T13:19:50.417Z,27.25
2017-06-04T13:20:52.822Z,27.25
2017-06-04T13:21:55.233Z,27.25
2017-06-04T13:22:57.641Z,27.30
2017-06-04T13:24:00.067Z,27.35